Terminal Aerodrome Forecast
Issued by NWS Charleston, WV

Current Version | Previous Version | Graphics & Text | Print | Product List | Glossary On
Versions: 1 2 3 4 5 6 7 8 9 10 11 12 13 14 15 16 17 18 19 20 21 22 23 24
000
FTUS41 KRLX 161444 AAC
TAFCRW
TAF AMD
KCRW 161444Z 1615/1712 00000KT 2SM -SN SCT007 OVC018
      TEMPO 1615/1618 3/4SM -SN OVC008
     FM161800 00000KT 3/4SM -SN OVC005
     FM162100 30005KT 3SM -SN OVC010
     FM170200 30003KT P6SM BKN025=

USA.gov is the U.S. government's official web portal to all federal, state and local government web resources and services.